Terminal Aerodrome Forecast
Issued by NWS Shreveport, LA

Home | Current Version | Previous Version | Text Only | Print | Product List | Glossary On
Versions: 1 2 3 4 5 6 7 8 9 10 11 12 13 14 15 16 17
000
FTUS44 KSHV 022338
TAFGGG
TAF
KGGG 022338Z 0300/0324 33006KT P6SM SCT025 BKN035
     FM030300 33004KT P6SM SCT035 BKN110
     FM030600 33004KT P6SM SCT110
     FM031200 35006KT P6SM SKC
     FM031800 35009KT P6SM SCT040=

USA.gov is the U.S. government's official web portal to all federal, state and local government web resources and services.